sensor_id;sensor_type;location;lat;lon;timestamp;pressure;altitude;pressure_sealevel;temperature;humidity
11345;BME280;5727;42.600;23.028;2023-02-11T00:00:55;95251.75;;;-4.16;93.92
11345;BME280;5727;42.600;23.028;2023-02-11T00:03:21;95242.13;;;-4.14;94.10
11345;BME280;5727;42.600;23.028;2023-02-11T00:05:56;95250.16;;;-4.17;94.11
11345;BME280;5727;42.600;23.028;2023-02-11T00:08:23;95248.22;;;-4.21;94.58
11345;BME280;5727;42.600;23.028;2023-02-11T00:10:52;95252.16;;;-4.25;94.36
11345;BME280;5727;42.600;23.028;2023-02-11T00:13:18;95258.84;;;-4.31;94.22
11345;BME280;5727;42.600;23.028;2023-02-11T00:15:45;95251.38;;;-4.39;94.87
11345;BME280;5727;42.600;23.028;2023-02-11T00:18:12;95258.66;;;-4.42;94.77
11345;BME280;5727;42.600;23.028;2023-02-11T00:20:39;95251.16;;;-4.44;94.63
11345;BME280;5727;42.600;23.028;2023-02-11T00:23:06;95257.06;;;-4.50;94.73
11345;BME280;5727;42.600;23.028;2023-02-11T00:25:33;95259.03;;;-4.52;94.72
11345;BME280;5727;42.600;23.028;2023-02-11T00:28:03;95258.44;;;-4.54;95.03
11345;BME280;5727;42.600;23.028;2023-02-11T00:30:30;95256.47;;;-4.52;94.50
11345;BME280;5727;42.600;23.028;2023-02-11T00:32:56;95260.19;;;-4.54;94.11
11345;BME280;5727;42.600;23.028;2023-02-11T00:35:23;95255.88;;;-4.54;93.89
11345;BME280;5727;42.600;23.028;2023-02-11T00:37:52;95265.28;;;-4.61;94.52
11345;BME280;5727;42.600;23.028;2023-02-11T00:40:18;95259.22;;;-4.60;94.06
11345;BME280;5727;42.600;23.028;2023-02-11T00:42:45;95257.63;;;-4.61;94.00
11345;BME280;5727;42.600;23.028;2023-02-11T00:45:13;95254.50;;;-4.63;94.38
11345;BME280;5727;42.600;23.028;2023-02-11T00:47:40;95254.88;;;-4.66;94.69
11345;BME280;5727;42.600;23.028;2023-02-11T00:50:07;95249.56;;;-4.71;94.65
11345;BME280;5727;42.600;23.028;2023-02-11T00:52:34;95245.81;;;-4.75;94.97
11345;BME280;5727;42.600;23.028;2023-02-11T00:55:01;95245.22;;;-4.77;95.49
11345;BME280;5727;42.600;23.028;2023-02-11T00:57:27;95246.59;;;-4.75;95.56
11345;BME280;5727;42.600;23.028;2023-02-11T00:59:54;95242.66;;;-4.77;94.91
11345;BME280;5727;42.600;23.028;2023-02-11T01:02:22;95241.06;;;-4.78;95.66
11345;BME280;5727;42.600;23.028;2023-02-11T01:04:49;95245.78;;;-4.82;96.28
11345;BME280;5727;42.600;23.028;2023-02-11T01:07:16;95254.44;;;-4.83;95.63
11345;BME280;5727;42.600;23.028;2023-02-11T01:09:42;95247.34;;;-4.87;96.03
11345;BME280;5727;42.600;23.028;2023-02-11T01:12:09;95247.75;;;-4.90;95.82
11345;BME280;5727;42.600;23.028;2023-02-11T01:14:36;95242.81;;;-4.92;95.46
11345;BME280;5727;42.600;23.028;2023-02-11T01:17:03;95245.31;;;-5.11;96.90
11345;BME280;5727;42.600;23.028;2023-02-11T01:19:32;95237.47;;;-5.03;96.57
11345;BME280;5727;42.600;23.028;2023-02-11T01:21:59;95238.06;;;-5.01;95.90
11345;BME280;5727;42.600;23.028;2023-02-11T01:24:25;95236.31;;;-5.01;96.38
11345;BME280;5727;42.600;23.028;2023-02-11T01:26:52;95240.63;;;-5.01;96.34
11345;BME280;5727;42.600;23.028;2023-02-11T01:29:19;95239.06;;;-5.02;96.25
11345;BME280;5727;42.600;23.028;2023-02-11T01:31:45;95237.47;;;-5.03;96.38
11345;BME280;5727;42.600;23.028;2023-02-11T01:34:12;95235.47;;;-5.14;96.35
11345;BME280;5727;42.600;23.028;2023-02-11T01:36:41;95235.28;;;-5.19;95.85
11345;BME280;5727;42.600;23.028;2023-02-11T01:39:08;95222.47;;;-5.26;96.46
11345;BME280;5727;42.600;23.028;2023-02-11T01:41:34;95231.31;;;-5.28;96.92
11345;BME280;5727;42.600;23.028;2023-02-11T01:44:23;95228.34;;;-5.32;96.70
11345;BME280;5727;42.600;23.028;2023-02-11T01:46:50;95224.56;;;-5.36;96.70
11345;BME280;5727;42.600;23.028;2023-02-11T01:49:19;95222.81;;;-5.42;96.49
11345;BME280;5727;42.600;23.028;2023-02-11T01:51:53;95217.88;;;-5.43;96.91
11345;BME280;5727;42.600;23.028;2023-02-11T01:54:24;95217.47;;;-5.53;97.93
11345;BME280;5727;42.600;23.028;2023-02-11T01:57:10;95218.66;;;-5.49;97.34
11345;BME280;5727;42.600;23.028;2023-02-11T01:59:57;95220.81;;;-5.46;96.66
11345;BME280;5727;42.600;23.028;2023-02-11T02:02:31;95218.66;;;-5.49;96.34
11345;BME280;5727;42.600;23.028;2023-02-11T02:05:03;95217.25;;;-5.52;97.02
11345;BME280;5727;42.600;23.028;2023-02-11T02:07:36;95215.50;;;-5.51;97.47
11345;BME280;5727;42.600;23.028;2023-02-11T02:10:08;95220.41;;;-5.50;97.37
11345;BME280;5727;42.600;23.028;2023-02-11T02:12:36;95214.91;;;-5.53;97.26
11345;BME280;5727;42.600;23.028;2023-02-11T02:15:26;95208.00;;;-5.60;96.96
11345;BME280;5727;42.600;23.028;2023-02-11T02:17:58;95213.91;;;-5.59;96.87
11345;BME280;5727;42.600;23.028;2023-02-11T02:23:48;95217.22;;;-5.59;96.70
11345;BME280;5727;42.600;23.028;2023-02-11T02:26:50;95214.47;;;-5.57;96.42
11345;BME280;5727;42.600;23.028;2023-02-11T02:35:25;95224.03;;;-5.72;96.89
11345;BME280;5727;42.600;23.028;2023-02-11T02:37:58;95227.38;;;-5.72;97.03
11345;BME280;5727;42.600;23.028;2023-02-11T02:40:30;95219.50;;;-5.77;97.38
11345;BME280;5727;42.600;23.028;2023-02-11T02:42:58;95219.50;;;-5.77;97.11
11345;BME280;5727;42.600;23.028;2023-02-11T02:45:26;95227.31;;;-5.78;96.63
11345;BME280;5727;42.600;23.028;2023-02-11T02:47:55;95228.13;;;-5.78;96.54
11345;BME280;5727;42.600;23.028;2023-02-11T02:50:24;95232.03;;;-5.82;96.50
11345;BME280;5727;42.600;23.028;2023-02-11T02:53:01;95221.81;;;-5.82;96.30
11345;BME280;5727;42.600;23.028;2023-02-11T02:55:40;95225.59;;;-5.84;95.90
11345;BME280;5727;42.600;23.028;2023-02-11T02:58:24;95225.13;;;-5.94;96.01
11345;BME280;5727;42.600;23.028;2023-02-11T03:00:59;95225.06;;;-6.01;97.05
11345;BME280;5727;42.600;23.028;2023-02-11T03:03:35;95215.66;;;-6.00;96.96
11345;BME280;5727;42.600;23.028;2023-02-11T03:06:07;95222.50;;;-6.01;97.36
11345;BME280;5727;42.600;23.028;2023-02-11T03:08:39;95217.00;;;-6.04;96.77
11345;BME280;5727;42.600;23.028;2023-02-11T03:11:09;95223.09;;;-6.05;96.67
11345;BME280;5727;42.600;23.028;2023-02-11T03:13:38;95217.38;;;-6.07;96.53
11345;BME280;5727;42.600;23.028;2023-02-11T03:16:08;95217.75;;;-6.10;96.86
11345;BME280;5727;42.600;23.028;2023-02-11T03:18:39;95216.00;;;-6.10;96.95
11345;BME280;5727;42.600;23.028;2023-02-11T03:21:07;95219.50;;;-6.11;96.85
11345;BME280;5727;42.600;23.028;2023-02-11T03:23:36;95218.94;;;-6.13;97.51
11345;BME280;5727;42.600;23.028;2023-02-11T03:26:11;95214.97;;;-6.15;96.88
11345;BME280;5727;42.600;23.028;2023-02-11T03:28:43;95218.47;;;-6.23;98.33
11345;BME280;5727;42.600;23.028;2023-02-11T03:31:16;95215.63;;;-6.34;98.21
11345;BME280;5727;42.600;23.028;2023-02-11T03:33:52;95210.56;;;-6.28;98.04
11345;BME280;5727;42.600;23.028;2023-02-11T03:36:24;95211.59;;;-6.22;98.19
11345;BME280;5727;42.600;23.028;2023-02-11T03:38:55;95214.91;;;-6.28;98.16
11345;BME280;5727;42.600;23.028;2023-02-11T03:41:24;95217.25;;;-6.27;98.15
11345;BME280;5727;42.600;23.028;2023-02-11T03:43:52;95211.34;;;-6.27;97.80
11345;BME280;5727;42.600;23.028;2023-02-11T03:46:24;95205.44;;;-6.28;97.17
11345;BME280;5727;42.600;23.028;2023-02-11T03:48:58;95210.56;;;-6.28;97.72
11345;BME280;5727;42.600;23.028;2023-02-11T03:51:28;95208.38;;;-6.31;97.70
11345;BME280;5727;42.600;23.028;2023-02-11T03:53:58;95206.03;;;-6.32;97.28
11345;BME280;5727;42.600;23.028;2023-02-11T03:56:31;95197.72;;;-6.41;97.54
11345;BME280;5727;42.600;23.028;2023-02-11T03:58:58;95203.00;;;-6.42;97.52
11345;BME280;5727;42.600;23.028;2023-02-11T04:01:25;95201.84;;;-6.40;97.55
11345;BME280;5727;42.600;23.028;2023-02-11T04:03:52;95204.22;;;-6.38;97.10
11345;BME280;5727;42.600;23.028;2023-02-11T04:06:20;95201.84;;;-6.40;96.71
11345;BME280;5727;42.600;23.028;2023-02-11T04:08:46;95202.81;;;-6.41;96.83
11345;BME280;5727;42.600;23.028;2023-02-11T04:11:13;95197.38;;;-6.38;95.86
11345;BME280;5727;42.600;23.028;2023-02-11T04:13:40;95201.59;;;-6.45;96.06
11345;BME280;5727;42.600;23.028;2023-02-11T04:16:06;95202.78;;;-6.47;96.44
11345;BME280;5727;42.600;23.028;2023-02-11T04:18:33;95204.47;;;-6.55;96.13
11345;BME280;5727;42.600;23.028;2023-02-11T04:21:00;95208.00;;;-6.56;96.18
11345;BME280;5727;42.600;23.028;2023-02-11T04:23:28;95201.28;;;-6.63;96.33
11345;BME280;5727;42.600;23.028;2023-02-11T04:25:55;95202.66;;;-6.82;97.32
11345;BME280;5727;42.600;23.028;2023-02-11T04:28:21;95193.66;;;-6.84;97.21
11345;BME280;5727;42.600;23.028;2023-02-11T04:30:48;95188.13;;;-6.88;97.57
11345;BME280;5727;42.600;23.028;2023-02-11T04:33:15;95196.81;;;-6.82;97.85
11345;BME280;5727;42.600;23.028;2023-02-11T04:35:42;95195.94;;;-6.89;97.73
11345;BME280;5727;42.600;23.028;2023-02-11T04:38:09;95188.13;;;-6.88;97.84
11345;BME280;5727;42.600;23.028;2023-02-11T04:40:37;95183.81;;;-6.87;98.36
11345;BME280;5727;42.600;23.028;2023-02-11T04:43:04;95190.53;;;-6.80;97.45
11345;BME280;5727;42.600;23.028;2023-02-11T04:45:31;95185.09;;;-6.77;97.01
11345;BME280;5727;42.600;23.028;2023-02-11T04:47:57;95193.53;;;-6.76;97.07
11345;BME280;5727;42.600;23.028;2023-02-11T04:50:24;95184.19;;;-6.90;96.95
11345;BME280;5727;42.600;23.028;2023-02-11T04:52:51;95188.44;;;-6.97;96.49
11345;BME280;5727;42.600;23.028;2023-02-11T04:55:18;95192.31;;;-7.01;96.63
11345;BME280;5727;42.600;23.028;2023-02-11T04:57:46;95190.72;;;-7.02;97.36
11345;BME280;5727;42.600;23.028;2023-02-11T05:00:13;95198.78;;;-6.99;97.53
11345;BME280;5727;42.600;23.028;2023-02-11T05:02:40;95195.53;;;-6.93;96.27
11345;BME280;5727;42.600;23.028;2023-02-11T05:05:07;95195.34;;;-6.91;96.70
11345;BME280;5727;42.600;23.028;2023-02-11T05:07:34;95185.94;;;-6.91;95.71
11345;BME280;5727;42.600;23.028;2023-02-11T05:10:00;95188.47;;;-6.91;95.51
11345;BME280;5727;42.600;23.028;2023-02-11T05:12:27;95181.16;;;-7.00;95.86
11345;BME280;5727;42.600;23.028;2023-02-11T05:14:55;95185.63;;;-7.02;95.65
11345;BME280;5727;42.600;23.028;2023-02-11T05:17:22;95188.19;;;-7.02;95.47
11345;BME280;5727;42.600;23.028;2023-02-11T05:19:48;95178.97;;;-7.03;95.89
11345;BME280;5727;42.600;23.028;2023-02-11T05:22:15;95179.59;;;-7.01;95.93
11345;BME280;5727;42.600;23.028;2023-02-11T05:24:42;95179.75;;;-7.03;95.31
11345;BME280;5727;42.600;23.028;2023-02-11T05:27:08;95181.16;;;-7.00;95.56
11345;BME280;5727;42.600;23.028;2023-02-11T05:29:35;95177.66;;;-6.99;96.31
11345;BME280;5727;42.600;23.028;2023-02-11T05:32:03;95182.13;;;-7.01;94.71
11345;BME280;5727;42.600;23.028;2023-02-11T05:34:31;95189.47;;;-7.13;94.56
11345;BME280;5727;42.600;23.028;2023-02-11T05:36:58;95186.59;;;-7.24;95.65
11345;BME280;5727;42.600;23.028;2023-02-11T05:39:25;95181.75;;;-7.19;95.78
11345;BME280;5727;42.600;23.028;2023-02-11T05:41:51;95172.59;;;-7.14;95.51
11345;BME280;5727;42.600;23.028;2023-02-11T05:44:18;95184.19;;;-7.11;95.13
11345;BME280;5727;42.600;23.028;2023-02-11T05:46:45;95181.38;;;-7.16;94.95
11345;BME280;5727;42.600;23.028;2023-02-11T05:49:15;95172.59;;;-7.14;95.33
11345;BME280;5727;42.600;23.028;2023-02-11T05:51:42;95186.34;;;-7.08;94.53
11345;BME280;5727;42.600;23.028;2023-02-11T05:54:08;95186.97;;;-7.06;94.73
11345;BME280;5727;42.600;23.028;2023-02-11T05:56:35;95185.75;;;-7.10;95.29
11345;BME280;5727;42.600;23.028;2023-02-11T05:59:02;95177.75;;;-7.07;95.45
11345;BME280;5727;42.600;23.028;2023-02-11T06:01:28;95189.16;;;-7.03;95.53
11345;BME280;5727;42.600;23.028;2023-02-11T06:03:55;95187.56;;;-7.04;95.10
11345;BME280;5727;42.600;23.028;2023-02-11T06:06:24;95186.25;;;-7.00;95.81
11345;BME280;5727;42.600;23.028;2023-02-11T06:08:50;95184.53;;;-6.93;95.26
11345;BME280;5727;42.600;23.028;2023-02-11T06:11:17;95191.25;;;-6.86;95.19
11345;BME280;5727;42.600;23.028;2023-02-11T06:13:44;95197.22;;;-6.79;95.12
11345;BME280;5727;42.600;23.028;2023-02-11T06:16:11;95190.22;;;-6.70;94.78
11345;BME280;5727;42.600;23.028;2023-02-11T06:18:38;95196.84;;;-6.76;94.51
11345;BME280;5727;42.600;23.028;2023-02-11T06:21:06;95195.50;;;-6.72;94.15
11345;BME280;5727;42.600;23.028;2023-02-11T06:23:34;95196.91;;;-6.69;94.01
11345;BME280;5727;42.600;23.028;2023-02-11T06:26:01;95189.88;;;-6.67;94.44
11345;BME280;5727;42.600;23.028;2023-02-11T06:28:28;95186.81;;;-6.56;93.94
11345;BME280;5727;42.600;23.028;2023-02-11T06:30:56;95187.66;;;-6.49;93.58
11345;BME280;5727;42.600;23.028;2023-02-11T06:33:23;95190.06;;;-6.41;93.58
11345;BME280;5727;42.600;23.028;2023-02-11T06:35:50;95191.81;;;-6.41;94.06
11345;BME280;5727;42.600;23.028;2023-02-11T06:38:17;95197.19;;;-6.30;94.38
11345;BME280;5727;42.600;23.028;2023-02-11T06:40:48;95190.81;;;-6.47;95.20
11345;BME280;5727;42.600;23.028;2023-02-11T06:43:15;95204.31;;;-6.25;95.11
11345;BME280;5727;42.600;23.028;2023-02-11T06:45:42;95193.03;;;-6.10;94.95
11345;BME280;5727;42.600;23.028;2023-02-11T06:48:09;95199.19;;;-5.98;94.46
11345;BME280;5727;42.600;23.028;2023-02-11T06:50:36;95197.28;;;-5.83;94.33
11345;BME280;5727;42.600;23.028;2023-02-11T06:53:03;95201.47;;;-5.69;93.18
11345;BME280;5727;42.600;23.028;2023-02-11T06:55:30;95203.50;;;-5.57;92.60
11345;BME280;5727;42.600;23.028;2023-02-11T06:57:58;95197.63;;;-5.51;92.12
11345;BME280;5727;42.600;23.028;2023-02-11T07:00:24;95196.88;;;-5.39;90.95
11345;BME280;5727;42.600;23.028;2023-02-11T07:02:53;95202.97;;;-5.33;90.99
11345;BME280;5727;42.600;23.028;2023-02-11T07:05:20;95206.16;;;-5.25;90.99
11345;BME280;5727;42.600;23.028;2023-02-11T07:07:47;95204.44;;;-5.11;91.30
11345;BME280;5727;42.600;23.028;2023-02-11T07:10:14;95208.19;;;-5.01;91.88
11345;BME280;5727;42.600;23.028;2023-02-11T07:12:40;95201.34;;;-4.87;91.66
11345;BME280;5727;42.600;23.028;2023-02-11T07:15:09;95198.63;;;-4.73;91.42
11345;BME280;5727;42.600;23.028;2023-02-11T07:17:35;95202.94;;;-4.60;90.95
11345;BME280;5727;42.600;23.028;2023-02-11T07:20:03;95195.06;;;-4.45;90.31
11345;BME280;5727;42.600;23.028;2023-02-11T07:22:29;95193.50;;;-4.33;90.35
11345;BME280;5727;42.600;23.028;2023-02-11T07:24:56;95189.56;;;-4.16;91.29
11345;BME280;5727;42.600;23.028;2023-02-11T07:27:23;95188.72;;;-3.97;92.37
11345;BME280;5727;42.600;23.028;2023-02-11T07:29:49;95186.72;;;-3.76;92.85
11345;BME280;5727;42.600;23.028;2023-02-11T07:32:18;95188.44;;;-3.56;91.13
11345;BME280;5727;42.600;23.028;2023-02-11T07:34:44;95185.44;;;-3.40;91.84
11345;BME280;5727;42.600;23.028;2023-02-11T07:37:12;95179.06;;;-3.25;91.29
11345;BME280;5727;42.600;23.028;2023-02-11T07:39:39;95177.41;;;-3.13;90.64
11345;BME280;5727;42.600;23.028;2023-02-11T07:42:05;95166.88;;;-2.98;89.53
11345;BME280;5727;42.600;23.028;2023-02-11T07:44:32;95172.50;;;-2.83;88.28
11345;BME280;5727;42.600;23.028;2023-02-11T07:46:59;95167.28;;;-2.70;88.92
11345;BME280;5727;42.600;23.028;2023-02-11T07:49:27;95166.47;;;-2.64;88.28
11345;BME280;5727;42.600;23.028;2023-02-11T07:51:54;95151.03;;;-2.57;86.53
11345;BME280;5727;42.600;23.028;2023-02-11T07:54:21;95155.84;;;-2.43;84.74
11345;BME280;5727;42.600;23.028;2023-02-11T07:56:47;95155.50;;;-2.28;84.46
11345;BME280;5727;42.600;23.028;2023-02-11T07:59:14;95155.81;;;-2.18;83.71
11345;BME280;5727;42.600;23.028;2023-02-11T08:01:41;95156.16;;;-2.15;82.87
11345;BME280;5727;42.600;23.028;2023-02-11T08:04:07;95157.19;;;-1.98;82.38
11345;BME280;5727;42.600;23.028;2023-02-11T08:06:39;95148.41;;;-1.90;81.81
11345;BME280;5727;42.600;23.028;2023-02-11T08:09:07;95153.22;;;-1.75;80.92
11345;BME280;5727;42.600;23.028;2023-02-11T08:11:34;95156.22;;;-1.60;79.73
11345;BME280;5727;42.600;23.028;2023-02-11T08:14:01;95150.00;;;-1.53;77.64
11345;BME280;5727;42.600;23.028;2023-02-11T08:16:30;95155.19;;;-1.41;78.31
11345;BME280;5727;42.600;23.028;2023-02-11T08:18:59;95156.41;;;-1.44;76.89
11345;BME280;5727;42.600;23.028;2023-02-11T08:21:26;95150.00;;;-1.35;76.50
11345;BME280;5727;42.600;23.028;2023-02-11T08:23:54;95154.75;;;-1.20;74.84
11345;BME280;5727;42.600;23.028;2023-02-11T08:26:23;95154.28;;;-1.17;74.62
11345;BME280;5727;42.600;23.028;2023-02-11T08:28:51;95163.41;;;-1.03;72.91
11345;BME280;5727;42.600;23.028;2023-02-11T08:31:20;95162.31;;;-0.96;72.77
11345;BME280;5727;42.600;23.028;2023-02-11T08:33:48;95158.56;;;-0.81;73.21
11345;BME280;5727;42.600;23.028;2023-02-11T08:36:16;95161.59;;;-0.73;70.23
11345;BME280;5727;42.600;23.028;2023-02-11T08:38:43;95157.50;;;-0.62;68.58
11345;BME280;5727;42.600;23.028;2023-02-11T08:41:12;95153.25;;;-0.57;70.20
11345;BME280;5727;42.600;23.028;2023-02-11T08:43:40;95154.38;;;-0.53;69.18
11345;BME280;5727;42.600;23.028;2023-02-11T08:46:08;95153.28;;;-0.45;69.07
11345;BME280;5727;42.600;23.028;2023-02-11T08:48:37;95156.75;;;-0.40;68.24
11345;BME280;5727;42.600;23.028;2023-02-11T08:51:05;95159.91;;;-0.26;68.42
11345;BME280;5727;42.600;23.028;2023-02-11T08:53:33;95149.50;;;-0.20;67.38
11345;BME280;5727;42.600;23.028;2023-02-11T08:56:00;95153.41;;;-0.06;66.35
11345;BME280;5727;42.600;23.028;2023-02-11T08:58:28;95154.75;;;0.09;68.13
11345;BME280;5727;42.600;23.028;2023-02-11T09:00:55;95153.63;;;0.16;66.14
11345;BME280;5727;42.600;23.028;2023-02-11T09:03:21;95153.63;;;0.28;65.96
11345;BME280;5727;42.600;23.028;2023-02-11T09:05:49;95157.19;;;0.38;63.87
11345;BME280;5727;42.600;23.028;2023-02-11T09:08:18;95151.91;;;0.33;63.63
11345;BME280;5727;42.600;23.028;2023-02-11T09:10:47;95158.31;;;0.42;63.57
11345;BME280;5727;42.600;23.028;2023-02-11T09:13:13;95150.00;;;0.52;65.02
11345;BME280;5727;42.600;23.028;2023-02-11T09:15:45;95137.97;;;0.57;64.58
11345;BME280;5727;42.600;23.028;2023-02-11T09:18:12;95140.56;;;0.57;65.48
11345;BME280;5727;42.600;23.028;2023-02-11T09:20:38;95143.09;;;0.69;64.28
11345;BME280;5727;42.600;23.028;2023-02-11T09:23:05;95140.50;;;0.80;63.90
11345;BME280;5727;42.600;23.028;2023-02-11T09:25:32;95131.59;;;0.88;63.38
11345;BME280;5727;42.600;23.028;2023-02-11T09:27:58;95136.09;;;0.81;63.57
11345;BME280;5727;42.600;23.028;2023-02-11T09:30:26;95127.06;;;0.95;62.70
11345;BME280;5727;42.600;23.028;2023-02-11T09:32:54;95134.34;;;0.98;62.35
11345;BME280;5727;42.600;23.028;2023-02-11T09:35:20;95134.81;;;0.95;62.00
11345;BME280;5727;42.600;23.028;2023-02-11T09:37:47;95125.47;;;1.06;61.86
11345;BME280;5727;42.600;23.028;2023-02-11T09:40:14;95120.31;;;1.22;58.79
11345;BME280;5727;42.600;23.028;2023-02-11T09:42:47;95120.50;;;1.32;59.66
11345;BME280;5727;42.600;23.028;2023-02-11T09:45:19;95112.28;;;1.35;56.64
11345;BME280;5727;42.600;23.028;2023-02-11T09:47:51;95113.31;;;1.34;56.32
11345;BME280;5727;42.600;23.028;2023-02-11T09:50:26;95107.53;;;1.44;57.52
11345;BME280;5727;42.600;23.028;2023-02-11T09:52:57;95099.59;;;1.50;58.99
11345;BME280;5727;42.600;23.028;2023-02-11T09:55:28;95113.47;;;1.61;57.81
11345;BME280;5727;42.600;23.028;2023-02-11T09:57:56;95101.72;;;1.70;57.31
11345;BME280;5727;42.600;23.028;2023-02-11T10:00:27;95098.88;;;1.71;56.04
11345;BME280;5727;42.600;23.028;2023-02-11T10:03:07;95088.63;;;1.76;53.57
11345;BME280;5727;42.600;23.028;2023-02-11T10:05:51;95079.31;;;1.75;55.76
11345;BME280;5727;42.600;23.028;2023-02-11T10:08:29;95073.69;;;1.78;55.60
11345;BME280;5727;42.600;23.028;2023-02-11T10:11:07;95068.63;;;1.88;55.48
11345;BME280;5727;42.600;23.028;2023-02-11T10:13:49;95065.94;;;2.00;55.67
11345;BME280;5727;42.600;23.028;2023-02-11T10:16:28;95062.66;;;2.05;54.12
11345;BME280;5727;42.600;23.028;2023-02-11T10:19:19;95056.53;;;2.11;53.36
11345;BME280;5727;42.600;23.028;2023-02-11T10:21:58;95056.16;;;2.24;54.18
11345;BME280;5727;42.600;23.028;2023-02-11T10:24:27;95040.25;;;2.32;54.34
11345;BME280;5727;42.600;23.028;2023-02-11T10:26:54;95040.91;;;2.44;53.69
11345;BME280;5727;42.600;23.028;2023-02-11T10:29:33;95027.31;;;2.32;50.91
11345;BME280;5727;42.600;23.028;2023-02-11T10:32:04;95019.91;;;2.19;52.19
11345;BME280;5727;42.600;23.028;2023-02-11T10:34:42;95017.34;;;2.19;51.32
11345;BME280;5727;42.600;23.028;2023-02-11T10:37:12;95009.34;;;2.20;52.82
11345;BME280;5727;42.600;23.028;2023-02-11T10:39:39;95007.19;;;2.39;52.17
11345;BME280;5727;42.600;23.028;2023-02-11T10:42:09;94999.31;;;2.50;54.00
11345;BME280;5727;42.600;23.028;2023-02-11T10:44:39;94991.91;;;2.59;49.85
11345;BME280;5727;42.600;23.028;2023-02-11T10:47:12;94980.06;;;2.68;51.76
11345;BME280;5727;42.600;23.028;2023-02-11T10:49:42;94981.47;;;2.80;51.45
11345;BME280;5727;42.600;23.028;2023-02-11T10:52:18;94975.38;;;2.92;50.48
11345;BME280;5727;42.600;23.028;2023-02-11T10:55:00;94973.34;;;2.99;49.78
11345;BME280;5727;42.600;23.028;2023-02-11T10:57:32;94965.50;;;2.89;47.57
11345;BME280;5727;42.600;23.028;2023-02-11T11:00:03;94958.19;;;2.80;49.58
11345;BME280;5727;42.600;23.028;2023-02-11T11:02:33;94959.06;;;2.91;47.79
11345;BME280;5727;42.600;23.028;2023-02-11T11:05:15;94956.47;;;2.91;47.58
11345;BME280;5727;42.600;23.028;2023-02-11T11:07:52;94957.91;;;3.09;49.74
11345;BME280;5727;42.600;23.028;2023-02-11T11:10:29;94949.38;;;3.13;47.97
11345;BME280;5727;42.600;23.028;2023-02-11T11:12:57;94951.56;;;3.26;47.31
11345;BME280;5727;42.600;23.028;2023-02-11T11:15:26;94953.06;;;3.22;48.19
11345;BME280;5727;42.600;23.028;2023-02-11T11:18:09;94940.06;;;3.17;48.35
11345;BME280;5727;42.600;23.028;2023-02-11T11:20:36;94943.28;;;3.34;46.48
11345;BME280;5727;42.600;23.028;2023-02-11T11:23:16;94944.41;;;3.43;43.96
11345;BME280;5727;42.600;23.028;2023-02-11T11:25:56;94936.63;;;3.48;44.61
11345;BME280;5727;42.600;23.028;2023-02-11T11:28:25;94915.38;;;3.41;47.21
11345;BME280;5727;42.600;23.028;2023-02-11T11:30:54;94925.75;;;3.46;51.46
11345;BME280;5727;42.600;23.028;2023-02-11T11:33:25;94927.88;;;3.59;49.65
11345;BME280;5727;42.600;23.028;2023-02-11T11:35:59;94920.94;;;3.70;48.79
11345;BME280;5727;42.600;23.028;2023-02-11T11:38:29;94920.16;;;3.69;47.07
11345;BME280;5727;42.600;23.028;2023-02-11T11:41:18;94911.16;;;3.87;46.76
11345;BME280;5727;42.600;23.028;2023-02-11T11:44:00;94912.97;;;3.87;46.56
11345;BME280;5727;42.600;23.028;2023-02-11T11:46:31;94906.50;;;3.94;49.06
11345;BME280;5727;42.600;23.028;2023-02-11T11:49:16;94910.44;;;4.07;45.87
11345;BME280;5727;42.600;23.028;2023-02-11T11:51:52;94907.38;;;4.15;46.54
11345;BME280;5727;42.600;23.028;2023-02-11T11:54:23;94900.91;;;4.22;41.23
11345;BME280;5727;42.600;23.028;2023-02-11T11:56:55;94894.69;;;4.28;40.76
11345;BME280;5727;42.600;23.028;2023-02-11T11:59:24;94886.63;;;4.35;41.18
11345;BME280;5727;42.600;23.028;2023-02-11T12:02:04;94885.03;;;4.19;37.46
11345;BME280;5727;42.600;23.028;2023-02-11T12:04:51;94884.03;;;4.20;37.40
11345;BME280;5727;42.600;23.028;2023-02-11T12:07:30;94886.84;;;4.08;36.28
11345;BME280;5727;42.600;23.028;2023-02-11T12:13:26;94873.59;;;3.95;36.67
11345;BME280;5727;42.600;23.028;2023-02-11T12:16:06;94871.75;;;3.80;36.16
11345;BME280;5727;42.600;23.028;2023-02-11T12:18:53;94861.59;;;3.68;37.54
11345;BME280;5727;42.600;23.028;2023-02-11T12:21:35;94857.75;;;3.81;37.89
11345;BME280;5727;42.600;23.028;2023-02-11T12:24:18;94856.97;;;3.91;39.53
11345;BME280;5727;42.600;23.028;2023-02-11T12:26:52;94858.28;;;3.98;39.44
11345;BME280;5727;42.600;23.028;2023-02-11T12:29:29;94847.16;;;4.03;38.48
11345;BME280;5727;42.600;23.028;2023-02-11T12:32:09;94843.00;;;3.97;37.75
11345;BME280;5727;42.600;23.028;2023-02-11T12:35:01;94837.81;;;3.92;38.22
11345;BME280;5727;42.600;23.028;2023-02-11T12:37:41;94840.44;;;4.12;39.81
11345;BME280;5727;42.600;23.028;2023-02-11T12:40:15;94836.56;;;4.29;40.65
11345;BME280;5727;42.600;23.028;2023-02-11T12:43:01;94829.56;;;4.35;39.31
11345;BME280;5727;42.600;23.028;2023-02-11T12:46:07;94829.28;;;4.77;38.05
11345;BME280;5727;42.600;23.028;2023-02-11T12:51:51;94834.63;;;6.38;35.13
11345;BME280;5727;42.600;23.028;2023-02-11T12:54:23;94828.34;;;7.01;34.36
11345;BME280;5727;42.600;23.028;2023-02-11T12:56:54;94821.75;;;8.54;32.04
11345;BME280;5727;42.600;23.028;2023-02-11T12:59:39;94815.66;;;10.13;29.96
11345;BME280;5727;42.600;23.028;2023-02-11T13:02:25;94810.13;;;11.81;28.14
11345;BME280;5727;42.600;23.028;2023-02-11T13:04:56;94801.69;;;13.42;26.08
11345;BME280;5727;42.600;23.028;2023-02-11T13:07:30;94803.63;;;14.74;24.81
11345;BME280;5727;42.600;23.028;2023-02-11T13:10:03;94798.56;;;15.46;23.31
11345;BME280;5727;42.600;23.028;2023-02-11T13:12:34;94797.19;;;16.24;22.86
11345;BME280;5727;42.600;23.028;2023-02-11T13:15:19;94788.06;;;16.89;22.31
11345;BME280;5727;42.600;23.028;2023-02-11T13:17:56;94784.91;;;17.58;22.12
11345;BME280;5727;42.600;23.028;2023-02-11T13:20:33;94784.09;;;18.23;21.34
11345;BME280;5727;42.600;23.028;2023-02-11T13:23:09;94780.34;;;17.90;20.65
11345;BME280;5727;42.600;23.028;2023-02-11T13:25:42;94772.91;;;17.33;21.17
11345;BME280;5727;42.600;23.028;2023-02-11T13:28:26;94779.50;;;17.86;21.33
11345;BME280;5727;42.600;23.028;2023-02-11T13:30:59;94781.75;;;17.68;20.38
11345;BME280;5727;42.600;23.028;2023-02-11T13:33:33;94780.03;;;16.06;20.86
11345;BME280;5727;42.600;23.028;2023-02-11T13:36:18;94784.22;;;15.95;21.68